createdAt,value
2023-05-01T00:00:35.390Z,0.00
2023-05-01T00:01:35.370Z,0.00
2023-05-01T00:02:35.500Z,0.00
2023-05-01T00:03:35.479Z,0.00
2023-05-01T00:04:35.399Z,0.00
2023-05-01T00:05:35.337Z,0.00
2023-05-01T00:06:35.351Z,0.00
2023-05-01T00:07:35.332Z,0.00
2023-05-01T00:08:35.357Z,0.00
2023-05-01T00:09:35.309Z,0.00
2023-05-01T00:10:35.338Z,0.00
2023-05-01T00:11:35.283Z,0.00
2023-05-01T00:12:35.262Z,0.00
2023-05-01T00:13:35.325Z,0.00
2023-05-01T00:14:35.248Z,0.00
2023-05-01T00:15:35.276Z,0.00
2023-05-01T00:16:35.275Z,0.00
2023-05-01T00:17:35.260Z,0.00
2023-05-01T00:18:35.220Z,0.00
2023-05-01T00:19:35.236Z,0.00
2023-05-01T00:20:35.207Z,0.00
2023-05-01T00:21:35.215Z,0.00
2023-05-01T00:22:35.212Z,0.00
2023-05-01T00:23:35.184Z,0.00
2023-05-01T00:24:35.166Z,0.00
2023-05-01T00:25:35.230Z,0.00
2023-05-01T00:26:35.155Z,0.00
2023-05-01T00:27:35.148Z,0.00
2023-05-01T00:28:35.167Z,0.00
2023-05-01T00:29:35.123Z,0.00
2023-05-01T00:30:35.110Z,0.00
2023-05-01T00:31:35.194Z,0.00
2023-05-01T00:32:35.109Z,0.00
2023-05-01T00:33:35.112Z,0.00
2023-05-01T00:34:35.144Z,0.00
2023-05-01T00:35:35.088Z,0.00
2023-05-01T00:36:35.067Z,0.00
2023-05-01T00:37:35.123Z,0.00
2023-05-01T00:38:35.064Z,0.00
2023-05-01T00:39:35.182Z,0.00
2023-05-01T00:40:35.041Z,0.00
2023-05-01T00:41:35.052Z,0.00
2023-05-01T00:42:35.033Z,0.00
2023-05-01T00:43:35.042Z,0.00
2023-05-01T00:44:35.019Z,0.00
2023-05-01T00:45:35.018Z,0.00
2023-05-01T00:46:35.045Z,0.00
2023-05-01T00:47:35.020Z,0.00
2023-05-01T00:48:34.980Z,0.00
2023-05-01T00:49:35.013Z,0.00
2023-05-01T00:50:34.944Z,0.00
2023-05-01T00:51:34.956Z,0.00
2023-05-01T00:52:35.028Z,0.00
2023-05-01T00:53:34.953Z,0.00
2023-05-01T00:54:34.918Z,0.00
2023-05-01T00:55:34.944Z,0.00
2023-05-01T00:56:34.904Z,0.00
2023-05-01T00:57:34.906Z,0.00
2023-05-01T00:58:34.902Z,0.00
2023-05-01T00:59:34.899Z,0.00
2023-05-01T01:00:34.852Z,0.00
2023-05-01T01:01:34.958Z,0.00
2023-05-01T01:02:34.979Z,0.00
2023-05-01T01:03:34.844Z,0.00
2023-05-01T01:04:34.857Z,0.00
2023-05-01T01:05:34.875Z,0.00
2023-05-01T01:06:34.885Z,0.00
2023-05-01T01:07:34.855Z,0.00
2023-05-01T01:08:34.821Z,0.00
2023-05-01T01:09:34.795Z,0.00
2023-05-01T01:10:34.786Z,0.00
2023-05-01T01:11:34.778Z,0.00
2023-05-01T01:12:34.803Z,0.00
2023-05-01T01:13:34.751Z,0.00
2023-05-01T01:14:34.730Z,0.00
2023-05-01T01:15:34.748Z,0.00
2023-05-01T01:16:34.735Z,0.00
2023-05-01T01:17:34.754Z,0.00
2023-05-01T01:18:34.738Z,0.00
2023-05-01T01:19:34.718Z,0.00
2023-05-01T01:20:34.694Z,0.00
2023-05-01T01:21:34.718Z,0.00
2023-05-01T01:22:34.685Z,0.00
2023-05-01T01:23:34.704Z,0.00
2023-05-01T01:24:34.728Z,0.00
2023-05-01T01:25:34.700Z,0.00
2023-05-01T01:26:34.639Z,0.00
2023-05-01T01:27:34.647Z,0.00
2023-05-01T01:28:34.722Z,0.00
2023-05-01T01:29:34.630Z,0.00
2023-05-01T01:30:34.640Z,0.00
2023-05-01T01:31:34.774Z,0.00
2023-05-01T01:32:34.605Z,0.00
2023-05-01T01:33:34.609Z,0.00
2023-05-01T01:34:34.599Z,0.00
2023-05-01T01:35:34.604Z,0.00
2023-05-01T01:36:34.594Z,0.00
2023-05-01T01:37:34.565Z,0.00
2023-05-01T01:38:34.548Z,0.00
2023-05-01T01:39:34.549Z,0.00
2023-05-01T01:40:34.575Z,0.00
2023-05-01T01:41:34.546Z,0.00
2023-05-01T01:42:34.572Z,0.00
2023-05-01T01:43:34.520Z,0.00
2023-05-01T01:44:34.509Z,0.00
2023-05-01T01:45:34.511Z,0.00
2023-05-01T01:46:34.501Z,0.00
2023-05-01T01:47:34.576Z,0.00
2023-05-01T01:48:34.533Z,0.00
2023-05-01T01:49:34.505Z,0.00
2023-05-01T01:50:34.461Z,0.00
2023-05-01T01:51:34.519Z,0.00
2023-05-01T01:52:34.484Z,0.00
2023-05-01T01:53:34.437Z,0.00
2023-05-01T01:54:34.423Z,0.00
2023-05-01T01:55:34.423Z,0.00
2023-05-01T01:56:34.424Z,0.00
2023-05-01T01:57:34.406Z,0.00
2023-05-01T01:58:34.401Z,0.00
2023-05-01T01:59:34.412Z,0.00
2023-05-01T02:00:34.367Z,0.00
2023-05-01T02:01:34.437Z,0.00
2023-05-01T02:02:34.916Z,0.00
2023-05-01T02:03:34.490Z,0.00
2023-05-01T02:04:34.340Z,0.00
2023-05-01T02:05:34.344Z,0.00
2023-05-01T02:06:34.412Z,0.00
2023-05-01T02:07:34.352Z,0.00
2023-05-01T02:08:34.310Z,0.00
2023-05-01T02:09:34.290Z,0.00
2023-05-01T02:10:34.292Z,0.00
2023-05-01T02:11:34.289Z,0.00
2023-05-01T02:12:34.280Z,0.00
2023-05-01T02:13:34.355Z,0.00
2023-05-01T02:14:34.257Z,0.00
2023-05-01T02:15:34.305Z,0.00
2023-05-01T02:16:34.348Z,0.00
2023-05-01T02:17:34.289Z,0.00
2023-05-01T02:18:34.228Z,0.00
2023-05-01T02:19:34.223Z,0.00
2023-05-01T02:20:34.193Z,0.00
2023-05-01T02:21:34.251Z,0.00
2023-05-01T02:22:34.233Z,0.00
2023-05-01T02:23:34.195Z,0.00
2023-05-01T02:24:34.172Z,0.00
2023-05-01T02:25:34.177Z,0.00
2023-05-01T02:26:34.174Z,0.00
2023-05-01T02:27:34.187Z,0.00
2023-05-01T02:28:34.150Z,0.00
2023-05-01T02:29:34.163Z,0.00
2023-05-01T02:30:34.151Z,0.00
2023-05-01T02:31:34.174Z,0.00
2023-05-01T02:32:34.140Z,0.00
2023-05-01T02:33:34.154Z,0.00
2023-05-01T02:34:34.090Z,0.00
2023-05-01T02:35:34.099Z,0.00
2023-05-01T02:36:34.094Z,0.00
2023-05-01T02:37:34.078Z,0.00
2023-05-01T02:38:34.067Z,0.00
2023-05-01T02:39:34.090Z,0.00
2023-05-01T02:40:34.049Z,0.00
2023-05-01T02:41:34.057Z,0.00
2023-05-01T02:42:34.034Z,0.00
2023-05-01T02:43:34.037Z,0.00
2023-05-01T02:44:34.023Z,0.00
2023-05-01T02:45:34.075Z,0.00
2023-05-01T02:46:34.076Z,0.00
2023-05-01T02:47:34.064Z,0.00
2023-05-01T02:48:33.974Z,0.00
2023-05-01T02:49:34.014Z,0.00
2023-05-01T02:50:33.989Z,0.00
2023-05-01T02:51:33.962Z,0.00
2023-05-01T02:52:33.958Z,0.00
2023-05-01T02:53:33.953Z,0.00
2023-05-01T02:54:33.942Z,0.00
2023-05-01T02:55:33.936Z,0.00
2023-05-01T02:56:33.966Z,0.00
2023-05-01T02:57:33.924Z,0.00
2023-05-01T02:58:33.906Z,0.00
2023-05-01T02:59:33.909Z,0.00
2023-05-01T03:00:33.893Z,0.00
2023-05-01T03:01:34.863Z,0.00
2023-05-01T03:02:33.907Z,0.00
2023-05-01T03:03:33.884Z,0.00
2023-05-01T03:04:33.939Z,0.00
2023-05-01T03:05:33.861Z,0.00
2023-05-01T03:06:33.899Z,0.00
2023-05-01T03:07:33.834Z,0.00
2023-05-01T03:08:33.854Z,0.00
2023-05-01T03:09:33.825Z,0.00
2023-05-01T03:10:33.796Z,0.00
2023-05-01T03:11:33.801Z,0.00
2023-05-01T03:12:33.779Z,1.00
2023-05-01T03:13:33.847Z,1.00
2023-05-01T03:14:33.792Z,1.00
2023-05-01T03:15:33.782Z,0.00
2023-05-01T03:16:33.825Z,0.00
2023-05-01T03:17:33.762Z,0.00
2023-05-01T03:18:33.739Z,0.00
2023-05-01T03:19:33.750Z,1.00
2023-05-01T03:20:33.754Z,1.00
2023-05-01T03:21:33.728Z,1.00
2023-05-01T03:22:33.711Z,1.00
2023-05-01T03:23:33.722Z,1.00
2023-05-01T03:24:33.708Z,1.00
2023-05-01T03:25:33.696Z,2.00
2023-05-01T03:26:33.702Z,1.00
2023-05-01T03:27:33.691Z,2.00
2023-05-01T03:28:33.678Z,2.00
2023-05-01T03:29:33.658Z,3.00
2023-05-01T03:30:33.646Z,3.00
2023-05-01T03:31:33.666Z,4.00
2023-05-01T03:32:33.665Z,5.00
2023-05-01T03:33:33.634Z,4.00
2023-05-01T03:34:33.641Z,4.00
2023-05-01T03:35:33.658Z,7.00
2023-05-01T03:36:33.595Z,7.00
2023-05-01T03:37:33.607Z,10.00
2023-05-01T03:38:33.592Z,11.00
2023-05-01T03:39:33.590Z,14.00
2023-05-01T03:40:33.602Z,17.00
2023-05-01T03:41:33.590Z,27.00
2023-05-01T03:42:33.569Z,33.00
2023-05-01T03:43:33.550Z,39.00
2023-05-01T03:44:33.539Z,47.00
2023-05-01T03:45:33.557Z,51.00
2023-05-01T03:46:33.560Z,55.00
2023-05-01T03:47:33.574Z,54.00
2023-05-01T03:48:33.505Z,60.00
2023-05-01T03:49:33.508Z,64.00
2023-05-01T03:50:33.486Z,67.00
2023-05-01T03:51:33.480Z,67.00
2023-05-01T03:52:33.612Z,67.00
2023-05-01T03:53:33.478Z,68.00
2023-05-01T03:54:33.462Z,72.00
2023-05-01T03:55:33.456Z,79.00
2023-05-01T03:56:33.454Z,77.00
2023-05-01T03:57:33.473Z,79.00
2023-05-01T03:58:33.459Z,82.00
2023-05-01T03:59:33.437Z,88.00
2023-05-01T04:00:33.432Z,96.00
2023-05-01T04:01:33.417Z,102.00
2023-05-01T04:02:33.511Z,107.00
2023-05-01T04:03:33.580Z,116.00
2023-05-01T04:04:33.511Z,122.00
2023-05-01T04:05:33.383Z,128.00
2023-05-01T04:06:33.459Z,135.00
2023-05-01T04:07:33.373Z,142.00
2023-05-01T04:08:33.369Z,153.00
2023-05-01T04:09:33.362Z,163.00
2023-05-01T04:10:33.419Z,173.00
2023-05-01T04:11:33.354Z,184.00
2023-05-01T04:12:33.345Z,197.00
2023-05-01T04:13:33.351Z,211.00
2023-05-01T04:14:33.331Z,225.00
2023-05-01T04:15:33.318Z,242.00
2023-05-01T04:16:33.406Z,257.00
2023-05-01T04:17:33.353Z,272.00
2023-05-01T04:18:33.309Z,293.00
2023-05-01T04:19:33.265Z,310.00
2023-05-01T04:20:33.303Z,333.00
2023-05-01T04:21:33.321Z,354.00
2023-05-01T04:22:33.282Z,376.00
2023-05-01T04:23:40.761Z,401.00
2023-05-01T04:24:33.242Z,427.00
2023-05-01T04:25:33.217Z,455.00
2023-05-01T04:26:33.225Z,484.00
2023-05-01T04:27:33.216Z,512.00
2023-05-01T04:28:33.250Z,533.00
2023-05-01T04:29:33.200Z,551.00
2023-05-01T04:30:33.202Z,568.00
2023-05-01T04:31:33.241Z,588.00
2023-05-01T04:32:33.207Z,613.00
2023-05-01T04:33:33.203Z,637.00
2023-05-01T04:34:33.164Z,656.00
2023-05-01T04:35:33.143Z,676.00
2023-05-01T04:36:33.152Z,698.00
2023-05-01T04:37:33.137Z,721.00
2023-05-01T04:38:33.143Z,745.00
2023-05-01T04:39:33.163Z,773.00
2023-05-01T04:40:33.152Z,798.00
2023-05-01T04:41:33.104Z,825.00
2023-05-01T04:42:33.133Z,854.00
2023-05-01T04:43:33.101Z,881.00
2023-05-01T04:44:33.082Z,910.00
2023-05-01T04:45:33.148Z,940.00
2023-05-01T04:46:33.165Z,970.00
2023-05-01T04:47:33.094Z,1003.00
2023-05-01T04:48:33.057Z,1035.00
2023-05-01T04:49:33.034Z,1066.00
2023-05-01T04:50:33.039Z,1099.00
2023-05-01T04:51:33.060Z,1128.00
2023-05-01T04:52:33.031Z,1161.00
2023-05-01T04:53:33.008Z,1196.00
2023-05-01T04:54:33.013Z,1232.00
2023-05-01T04:55:32.992Z,1269.00
2023-05-01T04:56:33.009Z,1308.00
2023-05-01T04:57:32.997Z,1354.00
2023-05-01T04:58:32.981Z,1398.00
2023-05-01T04:59:32.968Z,1442.00
2023-05-01T05:00:32.957Z,1497.00
2023-05-01T05:01:33.020Z,1544.00
2023-05-01T05:02:33.018Z,1587.00
2023-05-01T05:03:33.035Z,1640.00
2023-05-01T05:04:32.928Z,1690.00
2023-05-01T05:05:32.902Z,1751.00
2023-05-01T05:06:32.941Z,1820.00
2023-05-01T05:07:32.891Z,1870.00
2023-05-01T05:08:32.905Z,1906.00
2023-05-01T05:09:32.941Z,1982.00
2023-05-01T05:10:32.998Z,2120.00
2023-05-01T05:11:32.921Z,2196.00
2023-05-01T05:12:32.870Z,2422.00
2023-05-01T05:13:32.851Z,2670.00
2023-05-01T05:14:32.867Z,2821.00
2023-05-01T05:15:32.867Z,2914.00
2023-05-01T05:16:32.844Z,2945.00
2023-05-01T05:17:32.834Z,2845.00
2023-05-01T05:18:32.837Z,2845.00
2023-05-01T05:19:32.817Z,2915.00
2023-05-01T05:20:32.791Z,3080.00
2023-05-01T05:21:32.838Z,3469.00
2023-05-01T05:22:32.805Z,3772.00
2023-05-01T05:23:32.777Z,3917.00
2023-05-01T05:24:32.795Z,4314.00
2023-05-01T05:25:32.763Z,4235.00
2023-05-01T05:26:32.747Z,4315.00
2023-05-01T05:27:32.771Z,4704.00
2023-05-01T05:28:32.729Z,4843.00
2023-05-01T05:29:32.724Z,4836.00
2023-05-01T05:30:32.717Z,4651.00
2023-05-01T05:31:32.745Z,4621.00
2023-05-01T05:32:32.840Z,4614.00
2023-05-01T05:33:32.722Z,4648.00
2023-05-01T05:34:32.702Z,4791.00
2023-05-01T05:35:32.668Z,4722.00
2023-05-01T05:36:32.669Z,4333.00
2023-05-01T05:37:32.651Z,4638.00
2023-05-01T05:38:32.663Z,3857.00
2023-05-01T05:39:32.680Z,3666.00
2023-05-01T05:40:32.641Z,3497.00
2023-05-01T05:41:32.643Z,3718.00
2023-05-01T05:42:32.626Z,3841.00
2023-05-01T05:43:32.602Z,3752.00
2023-05-01T05:44:32.603Z,3664.00
2023-05-01T05:45:32.644Z,3834.00
2023-05-01T05:46:32.642Z,3880.00
2023-05-01T05:47:32.567Z,3626.00
2023-05-01T05:48:32.575Z,3494.00
2023-05-01T05:49:32.573Z,3771.00
2023-05-01T05:50:32.561Z,3972.00
2023-05-01T05:51:32.566Z,4051.00
2023-05-01T05:52:32.545Z,4090.00
2023-05-01T05:53:32.600Z,4373.00
2023-05-01T05:54:32.527Z,4483.00
2023-05-01T05:55:32.518Z,4515.00
2023-05-01T05:56:32.516Z,4163.00
2023-05-01T05:57:32.540Z,3989.00
2023-05-01T05:58:32.488Z,4266.00
2023-05-01T05:59:32.468Z,4224.00
2023-05-01T06:00:32.471Z,4372.00
2023-05-01T06:01:32.473Z,4317.00
2023-05-01T06:02:32.510Z,4359.00
2023-05-01T06:03:32.509Z,4457.00
2023-05-01T06:04:32.430Z,4487.00
2023-05-01T06:05:32.572Z,4531.00
2023-05-01T06:06:32.441Z,4340.00
2023-05-01T06:07:32.433Z,4246.00
2023-05-01T06:08:32.417Z,4139.00
2023-05-01T06:09:32.405Z,4246.00
2023-05-01T06:10:32.406Z,4480.00
2023-05-01T06:11:32.421Z,4900.00
2023-05-01T06:12:32.370Z,5252.00
2023-05-01T06:13:32.352Z,5277.00
2023-05-01T06:14:32.352Z,5042.00
2023-05-01T06:15:32.406Z,5326.00
2023-05-01T06:16:32.487Z,4998.00
2023-05-01T06:17:32.335Z,5213.00
2023-05-01T06:18:32.316Z,5090.00
2023-05-01T06:19:32.308Z,5026.00
2023-05-01T06:20:32.310Z,5277.00
2023-05-01T06:21:32.309Z,5765.00
2023-05-01T06:22:32.287Z,5782.00
2023-05-01T06:23:32.254Z,5522.00
2023-05-01T06:24:32.275Z,5203.00
2023-05-01T06:25:32.235Z,4943.00
2023-05-01T06:26:32.240Z,4626.00
2023-05-01T06:27:32.283Z,4806.00
2023-05-01T06:28:32.234Z,4393.00
2023-05-01T06:29:32.207Z,4424.00
2023-05-01T06:30:32.210Z,4213.00
2023-05-01T06:31:32.280Z,4183.00
2023-05-01T06:32:32.241Z,4504.00
2023-05-01T06:33:32.203Z,4402.00
2023-05-01T06:34:32.186Z,4261.00
2023-05-01T06:35:32.155Z,4194.00
2023-05-01T06:36:32.180Z,4178.00
2023-05-01T06:37:32.191Z,4197.00
2023-05-01T06:38:32.176Z,4277.00
2023-05-01T06:39:32.234Z,4301.00
2023-05-01T06:40:32.124Z,4270.00
2023-05-01T06:41:32.109Z,4235.00
2023-05-01T06:42:32.116Z,4295.00
2023-05-01T06:43:32.082Z,4265.00
2023-05-01T06:44:32.855Z,4289.00
2023-05-01T06:45:32.146Z,4353.00
2023-05-01T06:46:32.186Z,4370.00
2023-05-01T06:47:32.098Z,4359.00
2023-05-01T06:48:32.067Z,4398.00
2023-05-01T06:49:32.045Z,4388.00
2023-05-01T06:50:32.041Z,4406.00
2023-05-01T06:51:32.038Z,4461.00
2023-05-01T06:52:32.166Z,4501.00
2023-05-01T06:53:31.997Z,4567.00
2023-05-01T06:54:31.997Z,4656.00
2023-05-01T06:55:33.718Z,4735.00
2023-05-01T06:56:32.006Z,4791.00
2023-05-01T06:57:31.978Z,4858.00
2023-05-01T06:58:31.963Z,4939.00
2023-05-01T06:59:32.040Z,5033.00
2023-05-01T07:00:31.962Z,5093.00
2023-05-01T07:01:34.732Z,5095.00
2023-05-01T07:02:32.076Z,5159.00
2023-05-01T07:03:32.073Z,5222.00
2023-05-01T07:04:31.930Z,5241.00
2023-05-01T07:05:31.903Z,5264.00
2023-05-01T07:06:31.953Z,5296.00
2023-05-01T07:07:31.903Z,5283.00
2023-05-01T07:08:31.942Z,5263.00
2023-05-01T07:09:31.882Z,5187.00
2023-05-01T07:10:31.859Z,5288.00
2023-05-01T07:11:31.849Z,5478.00
2023-05-01T07:12:31.858Z,5572.00
2023-05-01T07:13:31.832Z,5580.00
2023-05-01T07:14:31.868Z,5652.00
2023-05-01T07:15:31.815Z,5788.00
2023-05-01T07:16:31.911Z,5869.00
2023-05-01T07:17:31.818Z,6003.00
2023-05-01T07:18:31.840Z,6105.00
2023-05-01T07:19:31.859Z,6219.00
2023-05-01T07:20:31.835Z,6301.00
2023-05-01T07:21:32.120Z,6419.00
2023-05-01T07:22:31.769Z,6518.00
2023-05-01T07:23:31.790Z,6641.00
2023-05-01T07:24:31.749Z,6732.00
2023-05-01T07:25:31.741Z,6780.00
2023-05-01T07:26:31.764Z,6823.00
2023-05-01T07:27:31.718Z,6771.00
2023-05-01T07:28:31.712Z,6656.00
2023-05-01T07:29:31.704Z,6695.00
2023-05-01T07:30:31.710Z,6777.00
2023-05-01T07:31:31.759Z,6850.00
2023-05-01T07:32:31.722Z,7019.00
2023-05-01T07:33:31.758Z,6962.00
2023-05-01T07:34:31.711Z,7019.00
2023-05-01T07:35:31.675Z,7053.00
2023-05-01T07:36:31.669Z,6999.00
2023-05-01T07:37:31.691Z,7067.00
2023-05-01T07:38:31.642Z,7050.00
2023-05-01T07:39:31.640Z,7001.00
2023-05-01T07:40:31.631Z,6932.00
2023-05-01T07:41:31.599Z,7043.00
2023-05-01T07:42:31.651Z,7119.00
2023-05-01T07:43:31.597Z,7083.00
2023-05-01T07:44:31.592Z,7054.00
2023-05-01T07:45:31.629Z,6914.00
2023-05-01T07:46:31.641Z,6719.00
2023-05-01T07:47:31.636Z,6702.00
2023-05-01T07:48:31.561Z,6650.00
2023-05-01T07:49:32.137Z,6549.00
2023-05-01T07:50:31.541Z,6304.00
2023-05-01T07:51:31.566Z,6262.00
2023-05-01T07:52:31.540Z,6154.00
2023-05-01T07:53:31.519Z,5993.00
2023-05-01T07:54:31.500Z,5789.00
2023-05-01T07:55:31.513Z,5414.00
2023-05-01T07:56:31.505Z,5009.00
2023-05-01T07:57:31.542Z,4721.00
2023-05-01T07:58:31.501Z,4621.00
2023-05-01T07:59:31.473Z,4603.00
2023-05-01T08:00:31.470Z,4631.00
2023-05-01T08:01:31.467Z,4701.00
2023-05-01T08:02:31.523Z,4798.00
2023-05-01T08:03:31.860Z,4901.00
2023-05-01T08:04:31.474Z,5024.00
2023-05-01T08:05:31.434Z,5160.00
2023-05-01T08:06:31.441Z,5316.00
2023-05-01T08:07:31.416Z,5482.00
2023-05-01T08:08:31.468Z,5649.00
2023-05-01T08:09:31.397Z,5828.00
2023-05-01T08:10:31.376Z,6036.00
2023-05-01T08:11:31.500Z,6242.00
2023-05-01T08:12:31.431Z,6410.00
2023-05-01T08:13:31.350Z,6435.00
2023-05-01T08:14:31.408Z,6488.00
2023-05-01T08:15:31.345Z,6568.00
2023-05-01T08:16:31.410Z,6716.00
2023-05-01T08:17:31.401Z,6808.00
2023-05-01T08:18:31.324Z,6963.00
2023-05-01T08:19:31.294Z,7189.00
2023-05-01T08:20:31.349Z,7576.00
2023-05-01T08:21:31.288Z,7902.00
2023-05-01T08:22:31.274Z,8115.00
2023-05-01T08:23:31.263Z,8485.00
2023-05-01T08:24:31.249Z,8865.00
2023-05-01T08:25:31.242Z,9088.00
2023-05-01T08:26:31.255Z,9101.00
2023-05-01T08:27:31.902Z,9121.00
2023-05-01T08:28:31.226Z,9002.00
2023-05-01T08:29:31.211Z,9092.00
2023-05-01T08:30:31.205Z,9079.00
2023-05-01T08:31:31.261Z,8618.00
2023-05-01T08:32:31.238Z,8673.00
2023-05-01T08:33:31.191Z,8843.00
2023-05-01T08:34:31.176Z,9021.00
2023-05-01T08:35:31.831Z,9209.00
2023-05-01T08:36:31.250Z,9243.00
2023-05-01T08:37:31.163Z,9337.00
2023-05-01T08:38:31.126Z,9387.00
2023-05-01T08:39:31.170Z,9204.00
2023-05-01T08:40:31.160Z,8880.00
2023-05-01T08:41:31.124Z,8883.00
2023-05-01T08:42:32.357Z,8842.00
2023-05-01T08:43:31.117Z,8914.00
2023-05-01T08:44:31.197Z,9021.00
2023-05-01T08:45:31.074Z,8997.00
2023-05-01T08:46:31.091Z,9281.00
2023-05-01T08:47:31.085Z,9441.00
2023-05-01T08:48:31.083Z,9470.00
2023-05-01T08:49:31.050Z,9373.00
2023-05-01T08:50:31.015Z,9345.00
2023-05-01T08:51:31.024Z,9298.00
2023-05-01T08:52:31.002Z,9143.00
2023-05-01T08:53:31.010Z,8774.00
2023-05-01T08:54:31.006Z,8636.00
2023-05-01T08:55:30.980Z,8602.00
2023-05-01T08:56:30.980Z,8426.00
2023-05-01T08:57:30.972Z,8349.00
2023-05-01T08:58:30.958Z,8287.00
2023-05-01T08:59:30.948Z,8459.00
2023-05-01T09:00:30.952Z,8677.00
2023-05-01T09:01:30.999Z,8844.00
2023-05-01T09:02:31.014Z,9125.00
2023-05-01T09:03:31.029Z,9305.00
2023-05-01T09:04:30.900Z,9292.00
2023-05-01T09:05:31.732Z,9197.00
2023-05-01T09:06:30.903Z,9213.00
2023-05-01T09:07:30.955Z,9479.00
2023-05-01T09:08:30.908Z,9442.00
2023-05-01T09:09:30.925Z,9625.00
2023-05-01T09:10:32.938Z,9518.00
2023-05-01T09:11:30.865Z,9639.00
2023-05-01T09:12:30.853Z,10417.00
2023-05-01T09:13:30.854Z,10777.00
2023-05-01T09:14:30.817Z,10730.00
2023-05-01T09:15:30.840Z,10629.00
2023-05-01T09:16:30.880Z,10753.00
2023-05-01T09:17:30.847Z,10901.00
2023-05-01T09:18:30.781Z,10917.00
2023-05-01T09:19:30.789Z,11411.00
2023-05-01T09:20:30.759Z,11559.00
2023-05-01T09:21:30.801Z,11663.00
2023-05-01T09:22:30.746Z,11867.00
2023-05-01T09:23:30.762Z,12165.00
2023-05-01T09:24:30.789Z,11718.00
2023-05-01T09:25:30.739Z,11202.00
2023-05-01T09:26:31.082Z,11410.00
2023-05-01T09:27:30.949Z,11223.00
2023-05-01T09:28:30.723Z,11193.00
2023-05-01T09:29:30.703Z,10908.00
2023-05-01T09:30:30.778Z,10718.00
2023-05-01T09:31:30.716Z,10662.00
2023-05-01T09:32:30.743Z,10873.00
2023-05-01T09:33:30.963Z,11121.00
2023-05-01T09:34:30.658Z,11460.00
2023-05-01T09:35:30.656Z,11447.00
2023-05-01T09:36:30.633Z,11104.00
2023-05-01T09:37:30.661Z,11302.00
2023-05-01T09:38:30.650Z,11018.00
2023-05-01T09:39:30.704Z,10753.00
2023-05-01T09:40:30.666Z,10538.00
2023-05-01T09:41:30.603Z,10258.00
2023-05-01T09:42:30.583Z,10019.00
2023-05-01T09:43:30.660Z,9902.00
2023-05-01T09:44:30.565Z,9672.00
2023-05-01T09:45:30.602Z,9641.00
2023-05-01T09:46:30.655Z,9822.00
2023-05-01T09:47:30.596Z,10060.00
2023-05-01T09:48:31.998Z,10331.00
2023-05-01T09:49:30.553Z,10566.00
2023-05-01T09:50:30.533Z,10455.00
2023-05-01T09:51:30.565Z,10109.00
2023-05-01T09:52:30.512Z,9947.00
2023-05-01T09:53:30.513Z,9772.00
2023-05-01T09:54:30.498Z,9694.00
2023-05-01T09:55:30.501Z,9534.00
2023-05-01T09:56:30.474Z,9786.00
2023-05-01T09:57:30.494Z,9882.00
2023-05-01T09:58:30.544Z,10053.00
2023-05-01T09:59:30.458Z,10218.00
2023-05-01T10:00:30.501Z,10175.00
2023-05-01T10:01:30.533Z,10365.00
2023-05-01T10:02:30.500Z,9662.00
2023-05-01T10:03:30.575Z,9233.00
2023-05-01T10:04:30.525Z,9021.00
2023-05-01T10:05:30.420Z,8792.00
2023-05-01T10:06:30.449Z,8512.00
2023-05-01T10:07:30.401Z,8271.00
2023-05-01T10:08:30.497Z,8080.00
2023-05-01T10:09:30.489Z,7890.00
2023-05-01T10:10:30.464Z,7745.00
2023-05-01T10:11:30.372Z,7596.00
2023-05-01T10:12:30.442Z,7506.00
2023-05-01T10:13:30.603Z,7467.00
2023-05-01T10:14:30.327Z,7488.00
2023-05-01T10:15:30.355Z,7562.00
2023-05-01T10:16:30.357Z,7687.00
2023-05-01T10:17:30.388Z,7846.00
2023-05-01T10:18:30.307Z,7943.00
2023-05-01T10:19:30.330Z,7976.00
2023-05-01T10:20:30.337Z,7969.00
2023-05-01T10:21:30.304Z,7937.00
2023-05-01T10:22:30.273Z,7874.00
2023-05-01T10:23:30.288Z,7856.00
2023-05-01T10:24:30.259Z,7856.00
2023-05-01T10:25:30.259Z,7850.00
2023-05-01T10:26:30.266Z,7917.00
2023-05-01T10:27:30.262Z,8002.00
2023-05-01T10:28:30.525Z,8098.00
2023-05-01T10:29:30.226Z,8226.00
2023-05-01T10:30:30.198Z,8341.00
2023-05-01T10:31:30.224Z,8422.00
2023-05-01T10:32:30.502Z,8478.00
2023-05-01T10:33:30.199Z,8511.00
2023-05-01T10:34:30.211Z,8505.00
2023-05-01T10:35:30.192Z,8496.00
2023-05-01T10:36:30.174Z,8452.00
2023-05-01T10:37:30.151Z,8461.00
2023-05-01T10:38:30.202Z,8471.00
2023-05-01T10:39:30.157Z,8479.00
2023-05-01T10:40:30.126Z,8466.00
2023-05-01T10:41:30.149Z,8462.00
2023-05-01T10:42:30.125Z,8492.00
2023-05-01T10:43:30.105Z,8505.00
2023-05-01T10:44:30.112Z,8457.00
2023-05-01T10:45:30.127Z,8449.00
2023-05-01T10:46:30.155Z,8434.00
2023-05-01T10:47:30.101Z,8355.00
2023-05-01T10:48:30.052Z,8165.00
2023-05-01T10:49:30.109Z,7979.00
2023-05-01T10:50:30.074Z,7807.00
2023-05-01T10:51:30.277Z,7641.00
2023-05-01T10:52:30.025Z,7538.00
2023-05-01T10:53:30.081Z,7429.00
2023-05-01T10:54:31.002Z,7306.00
2023-05-01T10:55:30.004Z,7209.00
2023-05-01T10:56:31.957Z,7171.00
2023-05-01T10:57:29.991Z,7027.00
2023-05-01T10:58:29.979Z,6887.00
2023-05-01T10:59:29.986Z,6805.00
2023-05-01T11:00:30.020Z,6702.00
2023-05-01T11:01:30.022Z,6706.00
2023-05-01T11:02:30.005Z,6652.00
2023-05-01T11:03:29.976Z,6593.00
2023-05-01T11:04:29.962Z,6549.00
2023-05-01T11:05:38.487Z,6497.00
2023-05-01T11:06:31.056Z,6392.00
2023-05-01T11:07:29.911Z,6270.00
2023-05-01T11:08:29.891Z,6196.00
2023-05-01T11:09:29.947Z,6131.00
2023-05-01T11:10:29.883Z,6076.00
2023-05-01T11:11:29.887Z,6024.00
2023-05-01T11:12:29.878Z,6000.00
2023-05-01T11:13:29.874Z,6012.00
2023-05-01T11:14:29.856Z,6022.00
2023-05-01T11:15:29.941Z,6000.00
2023-05-01T11:16:29.898Z,6007.00
2023-05-01T11:17:29.877Z,6017.00
2023-05-01T11:18:29.814Z,6021.00
2023-05-01T11:19:29.826Z,6024.00
2023-05-01T11:20:29.852Z,6003.00
2023-05-01T11:21:29.886Z,5960.00
2023-05-01T11:22:29.778Z,5934.00
2023-05-01T11:23:29.785Z,5938.00
2023-05-01T11:24:29.841Z,5966.00
2023-05-01T11:25:29.776Z,6000.00
2023-05-01T11:26:32.307Z,6018.00
2023-05-01T11:27:29.743Z,6006.00
2023-05-01T11:28:29.730Z,5961.00
2023-05-01T11:29:29.730Z,5908.00
2023-05-01T11:30:29.715Z,5858.00
2023-05-01T11:31:29.728Z,5784.00
2023-05-01T11:32:29.753Z,5693.00
2023-05-01T11:33:29.706Z,5612.00
2023-05-01T11:34:29.679Z,5578.00
2023-05-01T11:35:29.717Z,5610.00
2023-05-01T11:36:29.676Z,5691.00
2023-05-01T11:37:29.679Z,5757.00
2023-05-01T11:38:29.680Z,5865.00
2023-05-01T11:39:29.652Z,5919.00
2023-05-01T11:40:29.635Z,5995.00
2023-05-01T11:41:29.631Z,6148.00
2023-05-01T11:42:29.640Z,6331.00
2023-05-01T11:43:29.643Z,6452.00
2023-05-01T11:44:29.651Z,6514.00
2023-05-01T11:45:29.661Z,6568.00
2023-05-01T11:46:29.628Z,6602.00
2023-05-01T11:47:29.620Z,6595.00
2023-05-01T11:48:30.494Z,6445.00
2023-05-01T11:49:29.585Z,6327.00
2023-05-01T11:50:29.593Z,5973.00
2023-05-01T11:51:29.620Z,5879.00
2023-05-01T11:52:29.534Z,5711.00
2023-05-01T11:53:29.559Z,5605.00
2023-05-01T11:54:29.566Z,5570.00
2023-05-01T11:55:29.552Z,5525.00
2023-05-01T11:56:29.548Z,5440.00
2023-05-01T11:57:29.503Z,5312.00
2023-05-01T11:58:29.503Z,5168.00
2023-05-01T11:59:29.508Z,5013.00
2023-05-01T12:00:29.489Z,4876.00
2023-05-01T12:01:29.487Z,4758.00
2023-05-01T12:02:30.160Z,4648.00
2023-05-01T12:03:29.546Z,4540.00
2023-05-01T12:04:32.382Z,4458.00
2023-05-01T12:05:29.445Z,4380.00
2023-05-01T12:06:29.553Z,4323.00
2023-05-01T12:07:29.485Z,4308.00
2023-05-01T12:08:29.445Z,4293.00
2023-05-01T12:09:29.576Z,4264.00
2023-05-01T12:10:29.398Z,4302.00
2023-05-01T12:11:29.400Z,4226.00
2023-05-01T12:12:29.414Z,4198.00
2023-05-01T12:13:29.456Z,4168.00
2023-05-01T12:14:29.364Z,4146.00
2023-05-01T12:15:29.392Z,4124.00
2023-05-01T12:16:29.381Z,4129.00
2023-05-01T12:17:29.511Z,4142.00
2023-05-01T12:18:29.333Z,4157.00
2023-05-01T12:19:29.380Z,4180.00
2023-05-01T12:20:29.320Z,4206.00
2023-05-01T12:21:29.341Z,4225.00
2023-05-01T12:22:29.306Z,4257.00
2023-05-01T12:23:29.350Z,4290.00
2023-05-01T12:24:29.281Z,4327.00
2023-05-01T12:25:29.366Z,4366.00
2023-05-01T12:26:29.272Z,4381.00
2023-05-01T12:27:29.286Z,4389.00